createdAt,value
2022-09-25T00:02:02.433Z,8.13
2022-09-25T00:07:24.905Z,10.57
2022-09-25T00:12:47.214Z,7.60
2022-09-25T00:18:09.295Z,7.67
2022-09-25T00:23:32.211Z,6.77
2022-09-25T00:28:55.295Z,9.60
2022-09-25T00:34:18.040Z,7.93
2022-09-25T00:39:40.218Z,5.93
2022-09-25T00:45:07.389Z,6.80
2022-09-25T00:50:39.055Z,6.43
2022-09-25T00:56:03.429Z,6.93
2022-09-25T01:01:25.712Z,8.13
2022-09-25T01:06:49.475Z,6.87
2022-09-25T01:12:12.262Z,6.27
2022-09-25T01:17:40.617Z,7.67
2022-09-25T01:23:02.746Z,9.00
2022-09-25T01:28:50.257Z,8.87
2022-09-25T01:34:23.567Z,9.10
2022-09-25T01:39:54.038Z,8.03
2022-09-25T01:45:28.699Z,7.83
2022-09-25T01:50:59.954Z,8.37
2022-09-25T01:56:33.044Z,6.37
2022-09-25T02:01:59.553Z,6.40
2022-09-25T02:07:32.015Z,6.90
2022-09-25T02:12:59.093Z,8.53
2022-09-25T02:18:41.453Z,7.47
2022-09-25T02:24:29.888Z,10.10
2022-09-25T02:29:52.374Z,10.93
2022-09-25T02:35:16.128Z,7.33
2022-09-25T02:40:56.363Z,7.63
2022-09-25T02:46:30.434Z,8.77
2022-09-25T02:52:03.952Z,9.23
2022-09-25T02:57:42.357Z,8.47
2022-09-25T03:03:07.495Z,11.43
2022-09-25T03:08:39.194Z,13.77
2022-09-25T03:14:03.856Z,11.67
2022-09-25T03:19:28.646Z,11.77
2022-09-25T03:24:50.958Z,9.77
2022-09-25T03:30:14.018Z,10.67
2022-09-25T03:35:39.760Z,10.13
2022-09-25T03:41:03.730Z,9.60
2022-09-25T03:46:31.410Z,10.97
2022-09-25T03:51:53.716Z,9.73
2022-09-25T03:57:16.082Z,9.30
2022-09-25T04:02:38.743Z,7.40
2022-09-25T04:08:01.848Z,14.63
2022-09-25T04:13:24.995Z,9.77
2022-09-25T04:18:47.531Z,11.77
2022-09-25T04:24:29.179Z,14.57
2022-09-25T04:29:51.833Z,10.40
2022-09-25T04:35:14.314Z,11.47
2022-09-25T04:40:37.460Z,10.17
2022-09-25T04:46:08.000Z,10.27
2022-09-25T04:51:30.232Z,13.60
2022-09-25T04:56:53.561Z,12.40
2022-09-25T05:02:15.798Z,13.53
2022-09-25T05:07:39.476Z,11.80
2022-09-25T05:13:03.664Z,11.47
2022-09-25T05:18:26.843Z,13.30
2022-09-25T05:23:49.996Z,13.43
2022-09-25T05:29:12.484Z,14.33
2022-09-25T05:34:35.359Z,14.50
2022-09-25T05:39:59.050Z,15.13
2022-09-25T05:45:23.285Z,14.33
2022-09-25T05:50:51.402Z,18.63
2022-09-25T05:56:13.795Z,13.80
2022-09-25T06:01:36.014Z,15.03
2022-09-25T06:07:01.120Z,14.17
2022-09-25T06:12:24.991Z,13.27
2022-09-25T06:17:47.286Z,15.83
2022-09-25T06:23:09.987Z,18.43
2022-09-25T06:28:32.335Z,16.57
2022-09-25T06:33:54.875Z,9.77
2022-09-25T06:39:19.692Z,16.97
2022-09-25T06:44:43.932Z,15.53
2022-09-25T06:50:06.583Z,13.63
2022-09-25T06:55:32.401Z,15.57
2022-09-25T07:00:56.030Z,14.10
2022-09-25T07:06:24.376Z,17.53
2022-09-25T07:11:48.705Z,12.07
2022-09-25T07:17:10.984Z,15.23
2022-09-25T07:22:33.380Z,15.50
2022-09-25T07:27:55.865Z,16.17
2022-09-25T07:33:18.120Z,15.27
2022-09-25T07:38:41.254Z,16.10
2022-09-25T07:44:27.273Z,15.50
2022-09-25T07:49:46.735Z,20.73
2022-09-25T07:55:09.463Z,17.07
2022-09-25T08:00:31.836Z,16.83
2022-09-25T08:06:05.607Z,16.83
2022-09-25T08:11:31.366Z,17.37
2022-09-25T08:16:56.007Z,16.43
2022-09-25T08:22:18.415Z,17.70
2022-09-25T08:27:41.222Z,19.80
2022-09-25T08:33:04.318Z,14.27
2022-09-25T08:38:28.727Z,16.07
2022-09-25T08:44:25.966Z,16.93
2022-09-25T08:50:10.616Z,16.50
2022-09-25T08:55:59.318Z,14.97
2022-09-25T09:01:39.247Z,16.37
2022-09-25T09:07:27.545Z,15.60
2022-09-25T09:12:57.839Z,14.07
2022-09-25T09:18:28.970Z,18.17
2022-09-25T09:24:01.721Z,11.67
2022-09-25T09:29:42.743Z,14.70
2022-09-25T09:35:31.333Z,21.13
2022-09-25T09:41:19.217Z,16.80
2022-09-25T09:47:07.958Z,13.83
2022-09-25T09:52:36.363Z,13.90
2022-09-25T09:58:05.194Z,15.77
2022-09-25T10:03:33.577Z,15.88
2022-09-25T10:08:55.844Z,13.90
2022-09-25T10:14:22.027Z,11.82
2022-09-25T10:19:44.495Z,12.33
2022-09-25T10:25:07.660Z,11.95
2022-09-25T10:30:30.421Z,11.18
2022-09-25T10:35:54.973Z,9.18
2022-09-25T10:41:22.217Z,10.18
2022-09-25T10:47:03.067Z,10.07
2022-09-25T10:52:25.460Z,9.82
2022-09-25T10:57:48.195Z,7.10
2022-09-25T11:03:21.216Z,8.23
2022-09-25T11:08:46.256Z,8.23
2022-09-25T11:14:23.778Z,7.65
2022-09-25T11:19:46.285Z,9.45
2022-09-25T11:25:21.328Z,9.73
2022-09-25T11:30:52.019Z,14.13
2022-09-25T11:36:22.339Z,9.27
2022-09-25T11:42:00.583Z,10.65
2022-09-25T11:47:36.905Z,10.82
2022-09-25T11:53:25.486Z,12.98
2022-09-25T11:58:47.594Z,7.47
2022-09-25T12:04:41.702Z,8.20
2022-09-25T12:10:31.574Z,9.95
2022-09-25T12:16:12.877Z,8.10
2022-09-25T12:21:47.894Z,8.35
2022-09-25T12:27:16.691Z,6.47
2022-09-25T12:33:12.977Z,7.97
2022-09-25T12:38:44.618Z,8.85
2022-09-25T12:44:16.287Z,8.45
2022-09-25T12:49:44.379Z,9.60
2022-09-25T12:55:14.532Z,9.40
2022-09-25T13:00:41.619Z,8.98
2022-09-25T13:06:14.614Z,9.35
2022-09-25T13:11:55.696Z,11.52
2022-09-25T13:17:18.578Z,9.88
2022-09-25T13:22:41.896Z,7.93
2022-09-25T13:28:09.512Z,8.38
2022-09-25T13:33:41.849Z,8.60
2022-09-25T13:39:50.706Z,8.75
2022-09-25T13:45:22.554Z,7.32
2022-09-25T13:50:47.027Z,5.88
2022-09-25T13:56:15.001Z,6.30
2022-09-25T14:01:43.557Z,11.38
2022-09-25T14:07:15.063Z,7.80
2022-09-25T14:12:44.436Z,6.88
2022-09-25T14:18:16.531Z,7.40
2022-09-25T14:23:50.423Z,11.73
2022-09-25T14:29:39.242Z,9.18
2022-09-25T14:35:24.378Z,7.45
2022-09-25T14:41:04.309Z,11.60
2022-09-25T14:46:27.003Z,6.60
2022-09-25T14:51:50.496Z,7.25
2022-09-25T14:57:20.873Z,7.53
2022-09-25T15:02:48.504Z,5.78
2022-09-25T15:08:41.196Z,7.63
2022-09-25T15:14:12.391Z,8.02
2022-09-25T15:19:44.794Z,8.02
2022-09-25T15:25:08.583Z,8.57
2022-09-25T15:30:37.771Z,7.30
2022-09-25T15:36:03.483Z,7.85
2022-09-25T15:41:27.041Z,8.40
2022-09-25T15:46:54.973Z,5.97
2022-09-25T15:52:29.624Z,6.32
2022-09-25T15:57:54.802Z,7.38
2022-09-25T16:03:40.982Z,8.38
2022-09-25T16:09:18.683Z,7.82
2022-09-25T16:14:41.259Z,8.38
2022-09-25T16:20:08.108Z,6.32
2022-09-25T16:25:33.277Z,5.80
2022-09-25T16:31:03.042Z,10.98
2022-09-25T16:36:27.196Z,12.77
2022-09-25T16:41:49.995Z,10.05
2022-09-25T16:47:14.542Z,9.45
2022-09-25T16:52:36.737Z,9.13
2022-09-25T16:57:59.314Z,11.23
2022-09-25T17:03:22.979Z,10.63
2022-09-25T17:08:45.754Z,10.68
2022-09-25T17:14:14.109Z,11.07
2022-09-25T17:19:36.541Z,11.05
2022-09-25T17:25:03.047Z,11.48
2022-09-25T17:30:25.705Z,13.57
2022-09-25T17:35:52.643Z,13.17
2022-09-25T17:41:30.091Z,12.47
2022-09-25T17:46:55.816Z,11.88
2022-09-25T17:52:22.792Z,12.70
2022-09-25T17:57:45.529Z,11.57
2022-09-25T18:03:08.813Z,10.13
2022-09-25T18:08:34.954Z,12.07
2022-09-25T18:14:03.065Z,14.73
2022-09-25T18:19:43.557Z,12.07
2022-09-25T18:25:07.852Z,12.63
2022-09-25T18:30:33.237Z,9.57
2022-09-25T18:35:57.558Z,15.03
2022-09-25T18:41:27.896Z,14.03
2022-09-25T18:47:00.842Z,13.07
2022-09-25T18:52:25.877Z,17.67
2022-09-25T18:57:50.173Z,18.73
2022-09-25T19:03:16.664Z,15.07
2022-09-25T19:08:42.340Z,11.87
2022-09-25T19:14:07.823Z,12.43
2022-09-25T19:19:33.145Z,11.33
2022-09-25T19:24:57.193Z,10.23
2022-09-25T19:30:23.045Z,11.90
2022-09-25T19:35:46.708Z,11.80
2022-09-25T19:41:18.798Z,9.40
2022-09-25T19:46:46.094Z,9.10
2022-09-25T19:52:11.375Z,8.80
2022-09-25T19:57:33.815Z,12.47
2022-09-25T20:03:00.938Z,8.30
2022-09-25T20:08:23.114Z,8.30
2022-09-25T20:13:48.787Z,8.47
2022-09-25T20:19:11.697Z,6.30
2022-09-25T20:24:35.128Z,7.80
2022-09-25T20:29:58.264Z,6.80
2022-09-25T20:35:21.152Z,7.97
2022-09-25T20:40:43.318Z,9.00
2022-09-25T20:46:12.725Z,7.97
2022-09-25T20:51:35.528Z,9.40
2022-09-25T20:56:58.152Z,8.33
2022-09-25T21:02:20.662Z,6.63
2022-09-25T21:07:43.200Z,6.53
2022-09-25T21:13:06.386Z,6.40
2022-09-25T21:18:28.476Z,5.90
2022-09-25T21:23:54.253Z,5.97
2022-09-25T21:29:18.743Z,6.73
2022-09-25T21:34:41.225Z,7.83
2022-09-25T21:40:05.716Z,7.60
2022-09-25T21:45:28.231Z,7.23
2022-09-25T21:50:54.370Z,9.40
2022-09-25T21:56:21.027Z,7.23
2022-09-25T22:01:43.407Z,8.53
2022-09-25T22:07:05.627Z,6.90
2022-09-25T22:12:28.235Z,7.70
2022-09-25T22:17:50.414Z,8.10
2022-09-25T22:23:12.708Z,8.87
2022-09-25T22:28:35.606Z,9.30
2022-09-25T22:34:00.447Z,7.73
2022-09-25T22:39:22.879Z,7.07
2022-09-25T22:44:45.427Z,7.03
2022-09-25T22:50:08.224Z,10.40
2022-09-25T22:55:31.211Z,6.77
2022-09-25T23:00:53.532Z,7.90
2022-09-25T23:06:15.926Z,6.43
2022-09-25T23:11:38.919Z,6.97
2022-09-25T23:17:01.636Z,7.63
2022-09-25T23:22:24.055Z,5.30
2022-09-25T23:27:46.261Z,8.77
2022-09-25T23:33:08.564Z,6.40
2022-09-25T23:38:31.017Z,5.87
2022-09-25T23:43:55.082Z,5.03
2022-09-25T23:49:17.599Z,5.30
2022-09-25T23:54:40.170Z,6.33
